Latest Coastal Weather Observations for Low Rocky Point

IDT60701

Issued at 3:22 am EDT Sunday 11 December 2016 (issued every 10 minutes, with the page automatically refreshed every 10 minutes)

About coastal observations | Map of coastal stations | Coastal observations for TAS | Marine services | Other Formats
Station Details ID: 097080 Name: LOW ROCKY POINT Lat: -42.98 Lon: 145.50 Height: 34.0 m
Data from the previous 72 hours. | See also: Recent months at Low Rocky Point
Date/Time
EDT
Temp
°C
Wind Pressure Rain since
9am
mm
Weather Cloud Vis
km
Sea
Height
m
Swell
Dir  Spd
kts
Gust
kts
hPa Trend Height
m
Period
s
Dir
11/03:00am 11.8 W 13 16 1020.4 - 1.4 - - - - - - -
11/02:30am 11.7 W 15 18 1020.3 - 1.4 - - - - - - -
11/02:00am 11.8 W 15 19 1020.4 - 1.4 Recent precip. - - - - - -
11/01:30am 12.0 WSW 13 16 1020.4 - 1.4 - - - - - - -
11/01:00am 12.1 W 15 18 1020.4 - 1.2 - - - - - - -
11/12:30am 12.1 WNW 15 18 1020.3 - 1.2 - - - - - - -
11/12:00am 11.9 WNW 16 19 1020.4 - 1.2 - - - - - - -
 
Date/Time
EDT
Temp
°C
Wind Pressure Rain since
9am
mm
Weather Cloud Vis
km
Sea
Height
m
Swell
Dir  Spd
kts
Gust
kts
hPa Trend Height
m
Period
s
Dir
10/11:30pm 11.8 WNW 17 21 1020.3 - 1.2 - - - - - - -
10/11:00pm 11.9 W 18 22 1020.3 - 1.2 Recent precip. - - - - - -
10/10:30pm 11.7 WNW 19 23 1020.2 - 1.2 - - - - - - -
10/10:00pm 12.2 WNW 18 23 1020.3 - 0.8 - - - - - - -
10/09:30pm 12.1 WNW 18 22 1020.0 - 0.8 - - - - - - -
10/09:00pm 12.1 WNW 19 23 1019.9 - 0.8 - - - - - - -
10/08:30pm 11.5 WNW 18 23 1019.6 - 0.8 - - - - - - -
10/08:00pm 11.8 WNW 21 26 1019.3 - 0.8 Recent precip. - - - - - -
10/07:30pm 11.0 WNW 19 27 1019.2 - 0.2 - - - - - - -
10/07:00pm 12.7 WNW 21 26 1018.8 - 0.2 - - - - - - -
10/06:30pm 13.0 WNW 21 25 1018.4 - 0.2 - - - - - - -
10/06:00pm 13.9 WNW 21 24 1018.3 - 0.2 - - - - - - -
10/05:30pm 13.4 WNW 21 25 1018.2 - 0.2 - - - - - - -
10/05:00pm 13.5 WNW 23 27 1018.4 - 0.2 - - - - - - -
10/04:30pm 11.8 WNW 20 24 1018.5 - 0.2 - - - - - - -
10/04:00pm 13.4 WNW 21 27 1018.8 - 0.2 - - - - - - -
10/03:30pm 13.5 NW 19 24 1018.8 - 0.2 - - - - - - -
10/03:00pm 13.2 NW 23 28 1018.9 - 0.2 - - - - - - -
10/02:30pm 12.0 WNW 22 29 1019.1 - 0.2 - - - - - - -
10/02:00pm 13.2 WNW 23 28 1019.2 - 0.2 - - - - - - -
10/01:30pm 13.3 NW 21 27 1019.1 - 0.2 - - - - - - -
10/01:00pm 13.1 NW 23 27 1019.0 - 0.2 - - - - - - -
10/12:30pm 12.5 WNW 23 27 1019.0 - 0.2 - - - - - - -
10/12:00pm 12.2 WNW 22 27 1019.1 - 0.2 Recent precip. - - - - - -
10/11:30am 12.6 WNW 23 27 1019.1 - 0.2 - - - - - - -
10/11:00am 14.1 NW 21 27 1019.0 - 0.0 - - - - - - -
10/10:30am 13.2 NW 21 26 1019.0 - 0.0 - - - - - - -
10/10:00am 12.8 NW 19 25 1019.2 - 0.0 - - - - - - -
10/09:30am 11.9 WNW 24 27 1019.1 - 0.0 - - - - - - -
10/09:00am 11.6 WNW 22 25 1019.1 - 0.0 - - - - - - -
10/08:30am 11.9 WNW 19 23 1018.7 - 0.0 - - - - - - -
10/08:00am 11.2 WNW 20 26 1018.4 - 0.0 - - - - - - -
10/07:30am 11.8 WNW 20 23 1018.2 - 0.0 - - - - - - -
10/07:00am 11.9 WNW 18 23 1018.0 - 0.0 - - - - - - -
10/06:30am 11.7 WNW 20 24 1017.6 - 0.0 - - - - - - -
10/06:00am 11.6 WNW 21 25 1017.6 - 0.0 - - - - - - -
10/05:30am 11.1 WNW 19 23 1017.2 - 0.0 - - - - - - -
10/05:00am 11.1 WNW 20 26 1017.0 - 0.0 - - - - - - -
10/04:30am 10.8 WNW 17 20 1016.9 - 0.0 - - - - - - -
10/04:00am 11.2 W 23 27 1016.8 - 0.0 - - - - - - -
10/03:57am 11.2 W 22 27 1016.7 - 0.0 - - - - - - -
10/03:30am 11.7 WNW 20 26 1016.6 - 0.0 - - - - - - -
10/03:00am 11.6 NW 18 23 1016.7 - 0.0 - - - - - - -
10/02:30am 11.3 WNW 21 25 1016.7 - 0.0 - - - - - - -
10/02:00am 11.9 WNW 21 26 1016.8 - 0.0 - - - - - - -
10/01:30am 11.8 WNW 19 22 1016.9 - 0.0 - - - - - - -
10/01:00am 11.7 WNW 19 24 1017.2 - 0.0 - - - - - - -
10/12:30am 11.5 WNW 19 22 1017.3 - 0.0 - - - - - - -
10/12:00am 11.7 WNW 19 23 1017.6 - 0.0 - - - - - - -
 
Date/Time
EDT
Temp
°C
Wind Pressure Rain since
9am
mm
Weather Cloud Vis
km
Sea
Height
m
Swell
Dir  Spd
kts
Gust
kts
hPa Trend Height
m
Period
s
Dir
09/11:30pm 11.6 W 18 22 1017.6 - 0.0 - - - - - - -
09/11:00pm 11.5 W 19 23 1017.5 - 0.0 - - - - - - -
09/10:30pm 11.4 W 18 23 1017.2 - 0.0 - - - - - - -
09/10:00pm 11.4 W 18 21 1017.4 - 0.0 - - - - - - -
09/09:30pm 11.4 W 18 22 1017.2 - 0.0 - - - - - - -
09/09:00pm 11.2 W 17 21 1017.4 - 0.0 - - - - - - -
09/08:30pm 11.1 W 17 20 1017.1 - 0.0 - - - - - - -
09/08:00pm 11.2 W 16 19 1016.9 - 0.0 - - - - - - -
09/07:30pm 11.1 W 15 19 1016.5 - 0.0 - - - - - - -
09/07:00pm 11.7 WSW 14 18 1016.3 - 0.0 - - - - - - -
09/06:30pm 11.9 WSW 13 18 1015.9 - 0.0 - - - - - - -
09/06:00pm 11.4 WSW 14 20 1015.5 - 0.0 - - - - - - -
09/05:30pm 11.1 WSW 15 20 1015.3 - 0.0 - - - - - - -
09/05:00pm 12.3 WSW 13 18 1015.1 - 0.0 - - - - - - -
09/04:30pm 11.0 WSW 16 26 1015.0 - 0.0 - - - - - - -
09/04:00pm 12.1 WSW 14 21 1014.8 - 0.0 - - - - - - -
09/03:34pm 11.3 WSW 15 25 1014.7 - 0.0 - - - - - - -
09/03:30pm 11.7 WSW 14 21 1014.6 - 0.0 - - - - - - -
09/03:00pm 13.2 WSW 14 19 1014.3 - 0.0 - - - - - - -
09/02:30pm 12.5 SW 15 19 1014.1 - 0.0 - - - - - - -
09/02:00pm 12.8 WSW 13 19 1013.8 - 0.0 - - - - - - -
09/01:30pm 11.5 SW 17 24 1013.7 - 0.0 - - - - - - -
09/01:00pm 13.1 WSW 15 20 1013.3 - 0.0 - - - - - - -
09/12:30pm 12.5 WSW 16 23 1013.0 - 0.0 - - - - - - -
09/12:00pm 12.1 WSW 12 17 1012.6 - 0.0 - - - - - - -
09/11:30am 12.4 SW 17 25 1012.3 - 0.0 - - - - - - -
09/11:01am 10.5 SW 18 28 1011.9 - 0.0 - - - - - - -
09/11:00am 10.5 SW 19 28 1011.9 - 0.0 - - - - - - -
09/10:54am 11.9 SW 18 28 1011.8 - 0.0 - - - - - - -
09/10:30am 11.9 SW 16 22 1011.3 - 0.0 - - - - - - -
09/10:02am 12.2 SW 17 27 1010.9 - 0.0 - - - - - - -
09/10:00am 11.8 SW 18 27 1010.9 - 0.0 - - - - - - -
09/09:30am 10.9 SW 16 23 1010.5 - 0.0 - - - - - - -
09/09:00am 10.9 SW 19 25 1010.0 - 11.2 - - - - - - -
09/08:30am 9.6 SW 17 30 1009.5 - 11.2 - - - - - - -
09/08:29am 9.7 SW 17 30 1009.5 - 11.2 - - - - - - -
09/08:00am 8.9 SSW 19 30 1008.9 - 11.2 Recent precip. - - - - - -
09/07:35am 8.7 SSW 17 28 1008.3 - 11.2 - - - - - - -
09/07:30am 8.7 SW 17 25 1008.2 - 11.2 - - - - - - -
09/07:02am 7.7 SSW 15 27 1007.6 - 11.0 - - - - - - -
09/07:00am 7.7 SSW 14 22 1007.5 - 11.0 Recent precip. - - - - - -
09/06:30am 8.1 SSW 18 30 1006.9 - 10.4 - - - - - - -
09/06:06am 9.0 SW 18 28 1006.3 - 10.4 - - - - - - -
09/06:00am 8.8 SSW 19 28 1006.2 - 10.4 - - - - - - -
09/05:30am 8.3 SW 22 33 1005.5 - 10.4 - - - - - - -
09/05:01am 8.9 SW 19 29 1004.9 - 10.4 - - - - - - -
09/05:00am 9.0 SW 19 27 1004.8 - 10.4 - - - - - - -
09/04:30am 8.7 SSW 20 33 1004.2 - 10.4 - - - - - - -
09/04:21am 8.8 SW 22 33 1004.0 - 10.4 - - - - - - -
09/04:00am 8.2 SW 19 27 1003.6 - 10.4 Rain - - - - - -
09/03:30am 8.5 SW 21 37 1003.3 - 10.2 - - - - - - -
09/03:00am 8.9 SW 20 31 1002.6 - 10.2 - - - - - - -
09/02:30am 9.1 SW 24 34 1002.2 - 10.2 - - - - - - -
09/02:00am 9.2 SW 24 36 1001.7 - 10.2 - - - - - - -
09/01:37am 9.1 SW 25 35 1001.4 - 10.2 - - - - - - -
09/01:30am 9.3 SW 23 31 1001.3 - 10.2 - - - - - - -
09/01:03am 9.1 SW 23 34 1000.8 - 10.2 - - - - - - -
09/01:00am 9.1 SW 24 32 1000.7 - 10.2 Recent precip. - - - - - -
09/12:30am 8.6 SW 25 36 1000.0 - 9.8 - - - - - - -
09/12:06am 9.5 SW 26 36 999.1 - 9.8 - - - - - - -
09/12:00am 9.2 SW 24 33 999.0 - 9.8 Recent precip. - - - - - -
 
Date/Time
EDT
Temp
°C
Wind Pressure Rain since
9am
mm
Weather Cloud Vis
km
Sea
Height
m
Swell
Dir  Spd
kts
Gust
kts
hPa Trend Height
m
Period
s
Dir
08/11:30pm 9.0 SW 24 35 998.5 - 9.8 - - - - - - -
08/11:00pm 9.3 SW 24 36 997.7 - 9.0 Recent precip. - - - - - -
08/10:30pm 9.2 SW 26 36 996.8 - 8.4 - - - - - - -
08/10:00pm 9.4 SW 27 39 995.8 - 8.2 Recent precip. - - - - - -
08/09:30pm 9.9 SW 29 39 994.3 - 8.2 - - - - - - -
08/09:00pm 10.3 SW 29 39 992.9 - 7.4 Recent precip. - - - - - -
08/08:58pm 10.2 SW 29 39 992.7 - 7.4 - - - - - - -
08/08:30pm 10.5 SW 33 49 990.7 - 7.4 - - - - - - -
08/08:27pm 10.4 SW 34 49 990.4 - 7.4 - - - - - - -
08/08:00pm 11.3 SW 31 43 988.4 - 6.4 Rain - - - - - -
08/07:44pm 12.1 WSW 23 37 987.0 - 6.2 - - - - - - -
08/07:43pm 12.4 WSW 23 37 987.0 - 6.0 - - - - - - -
08/07:30pm 13.4 W 21 26 986.1 - 4.8 - - - - - - -
08/07:00pm 13.7 W 20 24 984.3 - 4.8 - - - - - - -
08/06:58pm 13.8 W 19 23 984.2 - 4.8 - - - - - - -
08/06:30pm 13.5 WNW 22 27 983.1 - 4.8 - - - - - - -
08/06:00pm 14.3 NW 25 33 981.4 - 4.8 - - - - - - -
08/05:57pm 14.7 NW 25 33 981.2 - 4.8 - - - - - - -
08/05:30pm 14.2 NW 33 40 980.2 - 4.8 - - - - - - -
08/05:00pm 13.7 NNW 35 48 978.8 - 4.8 - - - - - - -
08/04:41pm 13.8 NNW 30 51 978.6 - 4.8 - - - - - - -
08/04:40pm 13.9 NNW 29 51 978.6 - 4.8 - - - - - - -
08/04:30pm 14.2 NNW 24 37 978.8 - 4.8 - - - - - - -
08/04:00pm 13.6 N 20 30 980.0 - 4.8 Recent precip. - - - - - -
08/03:37pm 13.6 NNW 20 30 981.1 - 4.4 - - - - - - -
08/03:30pm 14.6 NNW 22 29 981.3 - 4.4 - - - - - - -
08/03:00pm 14.7 NNW 26 40 981.7 - 4.4 - - - - - - -
08/02:58pm 14.9 NNW 25 40 981.8 - 4.4 - - - - - - -
08/02:52pm 15.1 NNW 28 36 982.0 - 4.4 - - - - - - -
08/02:30pm 16.0 NNW 33 44 982.2 - 4.4 - - - - - - -
08/02:00pm 16.4 NNW 30 45 983.3 - 4.4 - - - - - - -
08/01:57pm 16.4 NNW 31 47 983.3 - 4.4 - - - - - - -
08/01:56pm 16.4 NNW 31 47 983.4 - 4.4 - - - - - - -
08/01:30pm 16.3 NNW 36 48 983.8 - 4.4 - - - - - - -
08/01:00pm 16.2 NNW 31 42 984.5 - 4.4 Recent precip. - - - - - -
08/12:30pm 15.7 NNW 36 46 985.0 - 4.2 - - - - - - -
08/12:00pm 15.8 NNW 32 44 984.7 - 4.2 Recent precip. - - - - - -
08/11:56am 16.0 NNW 28 44 984.8 - 4.2 - - - - - - -
08/11:53am 15.8 NNW 24 44 984.7 - 4.2 - - - - - - -
08/11:30am 16.4 N 22 35 985.0 - 4.2 - - - - - - -
08/11:29am 16.4 N 22 35 985.1 - 4.2 - - - - - - -
08/11:02am 16.0 N 15 25 985.5 - 4.0 - - - - - - -
08/11:00am 15.9 N 14 25 985.5 - 4.0 Recent precip. - - - - - -
08/10:30am 14.8 NW 5 7 986.1 - 4.0 - - - - - - -
08/10:00am 14.3 N 11 17 986.6 - 3.0 Recent precip. - - - - - -
08/09:30am 13.3 SE 4 5 987.8 - 2.0 - - - - - - -
08/09:00am 13.6 N 13 22 988.3 - 11.6 Rain - - - - - -
08/08:30am 12.9 NE 13 19 988.4 - 8.2 - - - - - - -
08/08:00am 12.5 NE 14 19 989.7 - 7.4 Rain - - - - - -
08/07:30am 12.2 NE 8 11 991.5 - 6.2 - - - - - - -
08/07:00am 12.0 ENE 6 8 993.1 - 4.6 Rain - - - - - -
08/06:30am 12.0 ENE 7 11 993.9 - 3.6 - - - - - - -
08/06:00am 12.8 NNW 8 12 995.2 - 2.0 Rain - - - - - -
08/05:30am 12.6 NNE 13 18 995.5 - 0.4 - - - - - - -
08/05:00am 12.4 NE 13 16 994.6 - 0.0 - - - - - - -
08/04:30am 12.6 NE 13 16 995.4 - 0.0 - - - - - - -
08/04:00am 13.6 NNE 14 17 997.2 - 0.0 - - - - - - -
08/03:30am 12.9 NE 13 16 997.4 - 0.0 - - - - - - -

Other Formats:

Comma delimited format used in spreadsheet applications
http://www.bom.gov.au/fwo/IDT60701/IDT60701.95961.axf

JavaScript Object Notation format (JSON) in row-major order
http://www.bom.gov.au/fwo/IDT60701/IDT60701.95961.json